Main page
METAR-TAF:

METAR-TAF

Airports :

Bobo Dioulasso Airport

Bobo-Dioulasso, Burkina Faso

latitude: 11-10N, longitude: 004-19W, elevation: 460 m

Current weather observation

The report was made 1 hour and 4 minutes ago, at 15:00 UTC
Wind 6 kt from variable directions
Temperature 38°C
Humidity 35%
Pressure 1007 hPa
Visibility 10 km or more
Few clouds at a height of 2600 ft

METAR: DFOO 081500Z VRB06KT 9999 FEW026 38/20 Q1007

Time: 16:04 (16:04 UTC)

Forecast

The report was made 5 hours and 4 minutes ago, at 11:00 UTC
Forecast valid from 08 at 12 UTC to 09 at 12 UTC
Wind 8 kt from the Southwest
Visibility 10 km or more
no clouds below 1500 m and no cumulonimbus
Probability 30% :
Temporary
from 08 at 15 UTC to 08 at 20 UTC
Few clouds at a height of 2000 ft
Few clouds at a height of 3600 ft, Cumulonimbus.
thunderstorm

TAF: DFOO 081100Z 0812/0912 22008KT CAVOK PROB30 TEMPO 0815/0820 TS FEW020 FEW036CB

Weather observations and forecasts of more than 4000 airports (METAR and TAF reports).

The available stations are represented by yellow and red dots on the map.

Hover mouse over dot to see the name of the station.

Then click to see weather observations and forecasts.

To change the map : click on the green buttons with a black cross to zoom in, on the green button with a dash to zoom out, or on the green arrows for adjacent maps.


METAR-TAF: